sensor_id;sensor_type;location;lat;lon;timestamp;P1;durP1;ratioP1;P2;durP2;ratioP2
71091;SDS011;58751;50.708;7.134;2022-08-19T00:01:29;16.33;;;14.57;;
71091;SDS011;58751;50.708;7.134;2022-08-19T00:03:54;15.90;;;14.70;;
71091;SDS011;58751;50.708;7.134;2022-08-19T00:06:21;16.10;;;14.90;;
71091;SDS011;58751;50.708;7.134;2022-08-19T00:08:46;16.90;;;15.50;;
71091;SDS011;58751;50.708;7.134;2022-08-19T00:11:11;17.50;;;16.20;;
71091;SDS011;58751;50.708;7.134;2022-08-19T00:13:37;15.57;;;14.37;;
71091;SDS011;58751;50.708;7.134;2022-08-19T00:16:02;15.60;;;14.40;;
71091;SDS011;58751;50.708;7.134;2022-08-19T00:18:28;15.10;;;13.73;;
71091;SDS011;58751;50.708;7.134;2022-08-19T00:20:53;16.40;;;15.10;;
71091;SDS011;58751;50.708;7.134;2022-08-19T00:23:19;15.87;;;14.40;;
71091;SDS011;58751;50.708;7.134;2022-08-19T00:25:45;16.57;;;15.10;;
71091;SDS011;58751;50.708;7.134;2022-08-19T00:28:10;16.30;;;15.00;;
71091;SDS011;58751;50.708;7.134;2022-08-19T00:30:36;16.73;;;15.13;;
71091;SDS011;58751;50.708;7.134;2022-08-19T00:33:01;16.20;;;14.50;;
71091;SDS011;58751;50.708;7.134;2022-08-19T00:35:26;16.33;;;15.03;;
71091;SDS011;58751;50.708;7.134;2022-08-19T00:37:51;15.47;;;14.23;;
71091;SDS011;58751;50.708;7.134;2022-08-19T00:40:18;14.93;;;13.90;;
71091;SDS011;58751;50.708;7.134;2022-08-19T00:42:44;16.20;;;14.57;;
71091;SDS011;58751;50.708;7.134;2022-08-19T00:45:11;15.90;;;14.27;;
71091;SDS011;58751;50.708;7.134;2022-08-19T00:47:37;16.83;;;15.33;;
71091;SDS011;58751;50.708;7.134;2022-08-19T00:50:02;16.13;;;14.50;;
71091;SDS011;58751;50.708;7.134;2022-08-19T00:52:29;14.23;;;13.03;;
71091;SDS011;58751;50.708;7.134;2022-08-19T00:54:56;13.13;;;12.20;;
71091;SDS011;58751;50.708;7.134;2022-08-19T00:57:24;14.13;;;13.03;;
71091;SDS011;58751;50.708;7.134;2022-08-19T00:59:51;14.23;;;12.83;;
71091;SDS011;58751;50.708;7.134;2022-08-19T01:02:17;14.70;;;13.30;;
71091;SDS011;58751;50.708;7.134;2022-08-19T01:04:43;14.33;;;13.20;;
71091;SDS011;58751;50.708;7.134;2022-08-19T01:07:08;14.80;;;13.47;;
71091;SDS011;58751;50.708;7.134;2022-08-19T01:09:33;12.87;;;11.97;;
71091;SDS011;58751;50.708;7.134;2022-08-19T01:11:58;13.03;;;11.93;;
71091;SDS011;58751;50.708;7.134;2022-08-19T01:14:25;13.37;;;12.13;;
71091;SDS011;58751;50.708;7.134;2022-08-19T01:16:50;14.50;;;13.33;;
71091;SDS011;58751;50.708;7.134;2022-08-19T01:19:17;13.80;;;12.70;;
71091;SDS011;58751;50.708;7.134;2022-08-19T01:21:44;13.97;;;12.70;;
71091;SDS011;58751;50.708;7.134;2022-08-19T01:24:13;14.33;;;13.13;;
71091;SDS011;58751;50.708;7.134;2022-08-19T01:26:39;13.70;;;12.40;;
71091;SDS011;58751;50.708;7.134;2022-08-19T01:29:04;12.73;;;11.83;;
71091;SDS011;58751;50.708;7.134;2022-08-19T01:31:31;13.93;;;12.70;;
71091;SDS011;58751;50.708;7.134;2022-08-19T01:33:57;13.77;;;12.57;;
71091;SDS011;58751;50.708;7.134;2022-08-19T01:36:24;13.53;;;12.43;;
71091;SDS011;58751;50.708;7.134;2022-08-19T01:38:49;12.80;;;11.90;;
71091;SDS011;58751;50.708;7.134;2022-08-19T01:41:16;14.40;;;12.90;;
71091;SDS011;58751;50.708;7.134;2022-08-19T01:43:41;13.50;;;12.30;;
71091;SDS011;58751;50.708;7.134;2022-08-19T01:46:07;14.73;;;13.30;;
71091;SDS011;58751;50.708;7.134;2022-08-19T01:48:33;14.10;;;12.90;;
71091;SDS011;58751;50.708;7.134;2022-08-19T01:50:58;14.50;;;13.20;;
71091;SDS011;58751;50.708;7.134;2022-08-19T01:53:24;12.33;;;11.43;;
71091;SDS011;58751;50.708;7.134;2022-08-19T01:55:49;14.63;;;13.47;;
71091;SDS011;58751;50.708;7.134;2022-08-19T01:58:16;14.50;;;13.30;;
71091;SDS011;58751;50.708;7.134;2022-08-19T02:00:43;13.63;;;12.53;;
71091;SDS011;58751;50.708;7.134;2022-08-19T02:03:08;12.83;;;11.93;;
71091;SDS011;58751;50.708;7.134;2022-08-19T02:05:34;13.83;;;12.83;;
71091;SDS011;58751;50.708;7.134;2022-08-19T02:07:59;13.37;;;12.20;;
71091;SDS011;58751;50.708;7.134;2022-08-19T02:10:24;12.93;;;11.93;;
71091;SDS011;58751;50.708;7.134;2022-08-19T02:12:49;13.37;;;12.30;;
71091;SDS011;58751;50.708;7.134;2022-08-19T02:15:17;14.17;;;12.87;;
71091;SDS011;58751;50.708;7.134;2022-08-19T02:17:42;14.20;;;12.80;;
71091;SDS011;58751;50.708;7.134;2022-08-19T02:20:08;14.20;;;13.00;;
71091;SDS011;58751;50.708;7.134;2022-08-19T02:22:33;13.30;;;12.20;;
71091;SDS011;58751;50.708;7.134;2022-08-19T02:24:58;13.73;;;12.63;;
71091;SDS011;58751;50.708;7.134;2022-08-19T02:27:24;14.23;;;12.97;;
71091;SDS011;58751;50.708;7.134;2022-08-19T02:29:49;15.33;;;13.83;;
71091;SDS011;58751;50.708;7.134;2022-08-19T02:32:16;14.00;;;13.00;;
71091;SDS011;58751;50.708;7.134;2022-08-19T02:34:41;14.57;;;13.33;;
71091;SDS011;58751;50.708;7.134;2022-08-19T02:37:07;13.27;;;12.37;;
71091;SDS011;58751;50.708;7.134;2022-08-19T02:39:32;14.27;;;13.17;;
71091;SDS011;58751;50.708;7.134;2022-08-19T02:41:57;16.20;;;14.90;;
71091;SDS011;58751;50.708;7.134;2022-08-19T02:44:22;13.70;;;12.77;;
71091;SDS011;58751;50.708;7.134;2022-08-19T02:46:48;14.67;;;13.33;;
71091;SDS011;58751;50.708;7.134;2022-08-19T02:49:15;14.27;;;13.07;;
71091;SDS011;58751;50.708;7.134;2022-08-19T02:51:41;13.07;;;11.90;;
71091;SDS011;58751;50.708;7.134;2022-08-19T02:54:07;15.10;;;13.90;;
71091;SDS011;58751;50.708;7.134;2022-08-19T02:56:33;14.57;;;13.57;;
71091;SDS011;58751;50.708;7.134;2022-08-19T02:58:59;12.90;;;12.00;;
71091;SDS011;58751;50.708;7.134;2022-08-19T03:01:25;14.53;;;13.43;;
71091;SDS011;58751;50.708;7.134;2022-08-19T03:03:50;12.80;;;11.70;;
71091;SDS011;58751;50.708;7.134;2022-08-19T03:06:17;15.43;;;14.10;;
71091;SDS011;58751;50.708;7.134;2022-08-19T03:08:43;13.70;;;12.70;;
71091;SDS011;58751;50.708;7.134;2022-08-19T03:11:12;13.33;;;12.23;;
71091;SDS011;58751;50.708;7.134;2022-08-19T03:13:37;15.27;;;13.97;;
71091;SDS011;58751;50.708;7.134;2022-08-19T03:16:04;15.17;;;14.03;;
71091;SDS011;58751;50.708;7.134;2022-08-19T03:18:29;14.17;;;13.13;;
71091;SDS011;58751;50.708;7.134;2022-08-19T03:20:54;14.57;;;13.37;;
71091;SDS011;58751;50.708;7.134;2022-08-19T03:23:21;14.80;;;13.67;;
71091;SDS011;58751;50.708;7.134;2022-08-19T03:25:47;15.63;;;14.30;;
71091;SDS011;58751;50.708;7.134;2022-08-19T03:28:13;15.67;;;14.37;;
71091;SDS011;58751;50.708;7.134;2022-08-19T03:30:39;14.60;;;13.20;;
71091;SDS011;58751;50.708;7.134;2022-08-19T03:33:05;16.73;;;15.40;;
71091;SDS011;58751;50.708;7.134;2022-08-19T03:35:30;15.33;;;13.97;;
71091;SDS011;58751;50.708;7.134;2022-08-19T03:37:55;15.43;;;14.13;;
71091;SDS011;58751;50.708;7.134;2022-08-19T03:40:22;16.23;;;15.03;;
71091;SDS011;58751;50.708;7.134;2022-08-19T03:42:47;17.47;;;16.07;;
71091;SDS011;58751;50.708;7.134;2022-08-19T03:45:12;17.33;;;15.80;;
71091;SDS011;58751;50.708;7.134;2022-08-19T03:47:38;15.00;;;13.83;;
71091;SDS011;58751;50.708;7.134;2022-08-19T03:50:03;14.17;;;12.97;;
71091;SDS011;58751;50.708;7.134;2022-08-19T03:52:29;16.97;;;15.43;;
71091;SDS011;58751;50.708;7.134;2022-08-19T03:54:54;16.07;;;14.77;;
71091;SDS011;58751;50.708;7.134;2022-08-19T03:57:21;15.67;;;14.47;;
71091;SDS011;58751;50.708;7.134;2022-08-19T03:59:46;15.10;;;13.90;;
71091;SDS011;58751;50.708;7.134;2022-08-19T04:02:11;15.17;;;13.97;;
71091;SDS011;58751;50.708;7.134;2022-08-19T04:04:37;15.97;;;14.73;;
71091;SDS011;58751;50.708;7.134;2022-08-19T04:07:03;15.27;;;14.07;;
71091;SDS011;58751;50.708;7.134;2022-08-19T04:09:28;15.00;;;13.90;;
71091;SDS011;58751;50.708;7.134;2022-08-19T04:11:54;16.43;;;15.13;;
71091;SDS011;58751;50.708;7.134;2022-08-19T04:14:23;17.27;;;15.77;;
71091;SDS011;58751;50.708;7.134;2022-08-19T04:16:48;16.50;;;15.23;;
71091;SDS011;58751;50.708;7.134;2022-08-19T04:19:14;16.10;;;15.00;;
71091;SDS011;58751;50.708;7.134;2022-08-19T04:21:39;17.23;;;15.53;;
71091;SDS011;58751;50.708;7.134;2022-08-19T04:24:05;17.60;;;16.00;;
71091;SDS011;58751;50.708;7.134;2022-08-19T04:26:32;16.00;;;14.60;;
71091;SDS011;58751;50.708;7.134;2022-08-19T04:28:57;17.30;;;15.97;;
71091;SDS011;58751;50.708;7.134;2022-08-19T04:31:25;14.50;;;13.40;;
71091;SDS011;58751;50.708;7.134;2022-08-19T04:33:50;15.50;;;14.30;;
71091;SDS011;58751;50.708;7.134;2022-08-19T04:36:16;16.10;;;14.80;;
71091;SDS011;58751;50.708;7.134;2022-08-19T04:38:41;15.90;;;14.50;;
71091;SDS011;58751;50.708;7.134;2022-08-19T04:41:06;15.63;;;14.50;;
71091;SDS011;58751;50.708;7.134;2022-08-19T04:43:32;16.27;;;14.97;;
71091;SDS011;58751;50.708;7.134;2022-08-19T04:45:57;16.60;;;15.30;;
71091;SDS011;58751;50.708;7.134;2022-08-19T04:48:24;17.13;;;15.63;;
71091;SDS011;58751;50.708;7.134;2022-08-19T04:50:49;16.37;;;14.97;;
71091;SDS011;58751;50.708;7.134;2022-08-19T04:53:15;19.57;;;17.53;;
71091;SDS011;58751;50.708;7.134;2022-08-19T04:55:40;18.97;;;16.93;;
71091;SDS011;58751;50.708;7.134;2022-08-19T04:58:05;19.53;;;17.63;;
71091;SDS011;58751;50.708;7.134;2022-08-19T05:00:30;18.27;;;16.70;;
71091;SDS011;58751;50.708;7.134;2022-08-19T05:02:56;18.93;;;17.27;;
71091;SDS011;58751;50.708;7.134;2022-08-19T05:05:22;18.10;;;16.50;;
71091;SDS011;58751;50.708;7.134;2022-08-19T05:07:47;19.40;;;17.60;;
71091;SDS011;58751;50.708;7.134;2022-08-19T05:10:13;20.10;;;18.20;;
71091;SDS011;58751;50.708;7.134;2022-08-19T05:12:38;18.47;;;16.60;;
71091;SDS011;58751;50.708;7.134;2022-08-19T05:15:04;17.13;;;15.53;;
71091;SDS011;58751;50.708;7.134;2022-08-19T05:17:29;20.23;;;18.23;;
71091;SDS011;58751;50.708;7.134;2022-08-19T05:19:54;18.10;;;16.40;;
71091;SDS011;58751;50.708;7.134;2022-08-19T05:22:21;20.27;;;18.47;;
71091;SDS011;58751;50.708;7.134;2022-08-19T05:24:46;20.20;;;18.50;;
71091;SDS011;58751;50.708;7.134;2022-08-19T05:27:11;24.83;;;22.33;;
71091;SDS011;58751;50.708;7.134;2022-08-19T05:29:36;23.57;;;21.47;;
71091;SDS011;58751;50.708;7.134;2022-08-19T05:32:02;22.27;;;20.40;;
71091;SDS011;58751;50.708;7.134;2022-08-19T05:34:28;21.20;;;19.23;;
71091;SDS011;58751;50.708;7.134;2022-08-19T05:36:54;25.10;;;22.77;;
71091;SDS011;58751;50.708;7.134;2022-08-19T05:39:21;27.17;;;24.70;;
71091;SDS011;58751;50.708;7.134;2022-08-19T05:41:47;26.60;;;24.30;;
71091;SDS011;58751;50.708;7.134;2022-08-19T05:44:13;34.27;;;26.30;;
71091;SDS011;58751;50.708;7.134;2022-08-19T05:46:38;27.77;;;25.00;;
71091;SDS011;58751;50.708;7.134;2022-08-19T05:49:05;29.07;;;26.53;;
71091;SDS011;58751;50.708;7.134;2022-08-19T05:51:30;28.10;;;25.40;;
71091;SDS011;58751;50.708;7.134;2022-08-19T05:53:55;30.27;;;27.57;;
71091;SDS011;58751;50.708;7.134;2022-08-19T05:56:22;27.80;;;25.30;;
71091;SDS011;58751;50.708;7.134;2022-08-19T05:58:47;26.10;;;23.97;;
71091;SDS011;58751;50.708;7.134;2022-08-19T06:01:13;32.87;;;29.97;;
71091;SDS011;58751;50.708;7.134;2022-08-19T06:03:39;30.47;;;27.90;;
71091;SDS011;58751;50.708;7.134;2022-08-19T06:06:04;29.90;;;27.10;;
71091;SDS011;58751;50.708;7.134;2022-08-19T06:08:30;30.97;;;27.97;;
71091;SDS011;58751;50.708;7.134;2022-08-19T06:10:55;29.73;;;26.83;;
71091;SDS011;58751;50.708;7.134;2022-08-19T06:13:22;34.80;;;31.60;;
71091;SDS011;58751;50.708;7.134;2022-08-19T06:15:47;34.17;;;31.03;;
71091;SDS011;58751;50.708;7.134;2022-08-19T06:18:12;32.00;;;28.90;;
71091;SDS011;58751;50.708;7.134;2022-08-19T06:20:38;29.03;;;26.43;;
71091;SDS011;58751;50.708;7.134;2022-08-19T06:23:03;29.70;;;27.13;;
71091;SDS011;58751;50.708;7.134;2022-08-19T06:25:29;35.97;;;32.60;;
71091;SDS011;58751;50.708;7.134;2022-08-19T06:27:54;31.10;;;28.20;;
71091;SDS011;58751;50.708;7.134;2022-08-19T06:30:21;29.37;;;26.67;;
71091;SDS011;58751;50.708;7.134;2022-08-19T06:32:46;29.63;;;26.87;;
71091;SDS011;58751;50.708;7.134;2022-08-19T06:35:11;31.03;;;28.30;;
71091;SDS011;58751;50.708;7.134;2022-08-19T06:37:36;30.47;;;27.60;;
71091;SDS011;58751;50.708;7.134;2022-08-19T06:40:02;33.13;;;30.10;;
71091;SDS011;58751;50.708;7.134;2022-08-19T06:42:28;32.77;;;28.90;;
71091;SDS011;58751;50.708;7.134;2022-08-19T06:44:53;33.77;;;30.83;;
71091;SDS011;58751;50.708;7.134;2022-08-19T06:47:20;29.20;;;26.40;;
71091;SDS011;58751;50.708;7.134;2022-08-19T06:49:45;30.90;;;28.00;;
71091;SDS011;58751;50.708;7.134;2022-08-19T06:52:11;30.87;;;27.90;;
71091;SDS011;58751;50.708;7.134;2022-08-19T06:54:36;26.47;;;24.07;;
71091;SDS011;58751;50.708;7.134;2022-08-19T06:57:01;27.00;;;24.60;;
71091;SDS011;58751;50.708;7.134;2022-08-19T06:59:27;29.60;;;27.00;;
71091;SDS011;58751;50.708;7.134;2022-08-19T07:01:53;26.93;;;24.60;;
71091;SDS011;58751;50.708;7.134;2022-08-19T07:04:21;27.77;;;25.07;;
71091;SDS011;58751;50.708;7.134;2022-08-19T07:06:46;26.97;;;24.47;;
71091;SDS011;58751;50.708;7.134;2022-08-19T07:09:13;25.30;;;23.10;;
71091;SDS011;58751;50.708;7.134;2022-08-19T07:11:43;26.60;;;24.30;;
71091;SDS011;58751;50.708;7.134;2022-08-19T07:14:08;25.97;;;23.60;;
71091;SDS011;58751;50.708;7.134;2022-08-19T07:16:34;26.60;;;24.30;;
71091;SDS011;58751;50.708;7.134;2022-08-19T07:18:59;29.27;;;26.50;;
71091;SDS011;58751;50.708;7.134;2022-08-19T07:21:27;26.17;;;23.97;;
71091;SDS011;58751;50.708;7.134;2022-08-19T07:23:52;28.73;;;26.20;;
71091;SDS011;58751;50.708;7.134;2022-08-19T07:26:18;26.83;;;24.37;;
71091;SDS011;58751;50.708;7.134;2022-08-19T07:28:44;26.17;;;23.90;;
71091;SDS011;58751;50.708;7.134;2022-08-19T07:31:10;25.03;;;22.93;;
71091;SDS011;58751;50.708;7.134;2022-08-19T07:33:35;25.03;;;22.87;;
71091;SDS011;58751;50.708;7.134;2022-08-19T07:36:00;25.90;;;23.60;;
71091;SDS011;58751;50.708;7.134;2022-08-19T07:38:27;25.93;;;23.80;;
71091;SDS011;58751;50.708;7.134;2022-08-19T07:40:52;28.57;;;26.13;;
71091;SDS011;58751;50.708;7.134;2022-08-19T07:43:17;26.23;;;24.07;;
71091;SDS011;58751;50.708;7.134;2022-08-19T07:45:42;22.53;;;20.53;;
71091;SDS011;58751;50.708;7.134;2022-08-19T07:48:08;24.33;;;22.43;;
71091;SDS011;58751;50.708;7.134;2022-08-19T07:50:33;27.30;;;24.97;;
71091;SDS011;58751;50.708;7.134;2022-08-19T07:52:58;24.67;;;22.47;;
71091;SDS011;58751;50.708;7.134;2022-08-19T07:55:25;24.80;;;22.60;;
71091;SDS011;58751;50.708;7.134;2022-08-19T07:57:50;24.53;;;22.40;;
71091;SDS011;58751;50.708;7.134;2022-08-19T08:00:15;24.27;;;22.40;;
71091;SDS011;58751;50.708;7.134;2022-08-19T08:02:40;22.97;;;20.97;;
71091;SDS011;58751;50.708;7.134;2022-08-19T08:05:06;21.53;;;19.80;;
71091;SDS011;58751;50.708;7.134;2022-08-19T08:07:31;23.20;;;21.10;;
71091;SDS011;58751;50.708;7.134;2022-08-19T08:09:57;21.10;;;19.33;;
71091;SDS011;58751;50.708;7.134;2022-08-19T08:12:24;22.57;;;20.67;;
71091;SDS011;58751;50.708;7.134;2022-08-19T08:14:51;24.20;;;18.20;;
71091;SDS011;58751;50.708;7.134;2022-08-19T08:17:18;19.70;;;18.10;;
71091;SDS011;58751;50.708;7.134;2022-08-19T08:19:44;21.57;;;19.57;;
71091;SDS011;58751;50.708;7.134;2022-08-19T08:22:10;21.90;;;20.00;;
71091;SDS011;58751;50.708;7.134;2022-08-19T08:24:35;21.57;;;19.67;;
71091;SDS011;58751;50.708;7.134;2022-08-19T08:27:01;20.87;;;19.10;;
71091;SDS011;58751;50.708;7.134;2022-08-19T08:29:28;18.67;;;16.73;;
71091;SDS011;58751;50.708;7.134;2022-08-19T08:31:53;19.30;;;17.57;;
71091;SDS011;58751;50.708;7.134;2022-08-19T08:34:19;20.67;;;18.47;;
71091;SDS011;58751;50.708;7.134;2022-08-19T08:36:45;16.60;;;15.17;;
71091;SDS011;58751;50.708;7.134;2022-08-19T08:39:11;15.40;;;14.10;;
71091;SDS011;58751;50.708;7.134;2022-08-19T08:41:37;14.87;;;13.47;;
71091;SDS011;58751;50.708;7.134;2022-08-19T08:44:04;13.00;;;12.00;;
71091;SDS011;58751;50.708;7.134;2022-08-19T08:46:33;13.60;;;12.40;;
71091;SDS011;58751;50.708;7.134;2022-08-19T08:49:01;13.50;;;12.30;;
71091;SDS011;58751;50.708;7.134;2022-08-19T08:51:27;15.67;;;14.37;;
71091;SDS011;58751;50.708;7.134;2022-08-19T08:53:53;13.73;;;12.50;;
71091;SDS011;58751;50.708;7.134;2022-08-19T08:56:19;15.77;;;14.30;;
71091;SDS011;58751;50.708;7.134;2022-08-19T08:58:47;14.40;;;13.20;;
71091;SDS011;58751;50.708;7.134;2022-08-19T09:01:13;17.13;;;15.27;;
71091;SDS011;58751;50.708;7.134;2022-08-19T09:03:41;16.17;;;14.67;;
71091;SDS011;58751;50.708;7.134;2022-08-19T09:06:07;17.07;;;15.57;;
71091;SDS011;58751;50.708;7.134;2022-08-19T09:08:38;14.83;;;13.50;;
71091;SDS011;58751;50.708;7.134;2022-08-19T09:11:06;16.30;;;14.83;;
71091;SDS011;58751;50.708;7.134;2022-08-19T09:13:34;14.03;;;13.00;;
71091;SDS011;58751;50.708;7.134;2022-08-19T09:16:03;16.40;;;14.80;;
71091;SDS011;58751;50.708;7.134;2022-08-19T09:18:38;15.53;;;14.13;;
71091;SDS011;58751;50.708;7.134;2022-08-19T09:21:05;14.43;;;13.33;;
71091;SDS011;58751;50.708;7.134;2022-08-19T09:23:30;15.83;;;14.43;;
71091;SDS011;58751;50.708;7.134;2022-08-19T09:25:55;13.33;;;12.17;;
71091;SDS011;58751;50.708;7.134;2022-08-19T09:28:20;15.20;;;14.10;;
71091;SDS011;58751;50.708;7.134;2022-08-19T09:30:46;16.07;;;14.77;;
71091;SDS011;58751;50.708;7.134;2022-08-19T09:33:11;16.97;;;15.17;;
71091;SDS011;58751;50.708;7.134;2022-08-19T09:35:36;15.77;;;14.47;;
71091;SDS011;58751;50.708;7.134;2022-08-19T09:38:03;19.43;;;17.77;;
71091;SDS011;58751;50.708;7.134;2022-08-19T09:40:28;23.43;;;21.10;;
71091;SDS011;58751;50.708;7.134;2022-08-19T09:42:54;20.67;;;18.87;;
71091;SDS011;58751;50.708;7.134;2022-08-19T09:45:19;19.20;;;17.50;;
71091;SDS011;58751;50.708;7.134;2022-08-19T09:47:45;21.73;;;19.73;;
71091;SDS011;58751;50.708;7.134;2022-08-19T09:50:11;19.47;;;17.87;;
71091;SDS011;58751;50.708;7.134;2022-08-19T09:52:36;22.40;;;20.27;;
71091;SDS011;58751;50.708;7.134;2022-08-19T09:55:04;19.47;;;17.87;;
71091;SDS011;58751;50.708;7.134;2022-08-19T09:57:29;17.87;;;16.17;;
71091;SDS011;58751;50.708;7.134;2022-08-19T09:59:55;22.00;;;20.00;;
71091;SDS011;58751;50.708;7.134;2022-08-19T10:02:20;21.40;;;19.50;;
71091;SDS011;58751;50.708;7.134;2022-08-19T10:04:45;19.47;;;17.67;;
71091;SDS011;58751;50.708;7.134;2022-08-19T10:07:10;20.87;;;19.00;;
71091;SDS011;58751;50.708;7.134;2022-08-19T10:09:35;19.07;;;17.37;;
71091;SDS011;58751;50.708;7.134;2022-08-19T10:12:03;22.60;;;20.50;;
71091;SDS011;58751;50.708;7.134;2022-08-19T10:14:28;23.20;;;20.70;;
71091;SDS011;58751;50.708;7.134;2022-08-19T10:16:53;24.40;;;22.10;;
71091;SDS011;58751;50.708;7.134;2022-08-19T10:19:19;24.30;;;22.03;;
71091;SDS011;58751;50.708;7.134;2022-08-19T10:21:44;24.10;;;22.00;;
71091;SDS011;58751;50.708;7.134;2022-08-19T10:24:09;22.53;;;20.47;;
71091;SDS011;58751;50.708;7.134;2022-08-19T10:26:36;22.10;;;20.20;;
71091;SDS011;58751;50.708;7.134;2022-08-19T10:29:04;21.33;;;19.70;;
71091;SDS011;58751;50.708;7.134;2022-08-19T10:31:30;21.80;;;20.10;;
71091;SDS011;58751;50.708;7.134;2022-08-19T10:33:56;22.53;;;20.60;;
71091;SDS011;58751;50.708;7.134;2022-08-19T10:36:22;21.40;;;19.67;;
71091;SDS011;58751;50.708;7.134;2022-08-19T10:38:49;22.50;;;20.60;;
71091;SDS011;58751;50.708;7.134;2022-08-19T10:41:15;21.77;;;19.87;;
71091;SDS011;58751;50.708;7.134;2022-08-19T10:43:41;20.37;;;18.67;;
71091;SDS011;58751;50.708;7.134;2022-08-19T10:46:08;19.70;;;17.90;;
71091;SDS011;58751;50.708;7.134;2022-08-19T10:48:34;19.00;;;17.27;;
71091;SDS011;58751;50.708;7.134;2022-08-19T10:50:59;20.23;;;18.63;;
71091;SDS011;58751;50.708;7.134;2022-08-19T10:53:24;20.80;;;18.63;;
71091;SDS011;58751;50.708;7.134;2022-08-19T10:55:49;19.53;;;17.93;;
71091;SDS011;58751;50.708;7.134;2022-08-19T10:58:16;19.67;;;17.90;;
71091;SDS011;58751;50.708;7.134;2022-08-19T11:00:41;18.87;;;17.37;;
71091;SDS011;58751;50.708;7.134;2022-08-19T11:03:08;18.77;;;17.07;;
71091;SDS011;58751;50.708;7.134;2022-08-19T11:05:33;19.73;;;18.00;;
71091;SDS011;58751;50.708;7.134;2022-08-19T11:07:59;19.70;;;18.10;;
71091;SDS011;58751;50.708;7.134;2022-08-19T11:10:24;16.60;;;15.30;;
71091;SDS011;58751;50.708;7.134;2022-08-19T11:12:49;16.33;;;15.03;;
71091;SDS011;58751;50.708;7.134;2022-08-19T11:15:14;14.57;;;13.37;;
71091;SDS011;58751;50.708;7.134;2022-08-19T11:17:40;15.80;;;14.60;;
71091;SDS011;58751;50.708;7.134;2022-08-19T11:20:07;16.53;;;15.27;;
71091;SDS011;58751;50.708;7.134;2022-08-19T11:22:32;16.07;;;14.60;;
71091;SDS011;58751;50.708;7.134;2022-08-19T11:24:57;13.97;;;12.83;;
71091;SDS011;58751;50.708;7.134;2022-08-19T11:27:23;14.40;;;13.27;;
71091;SDS011;58751;50.708;7.134;2022-08-19T11:29:48;11.93;;;11.13;;
71091;SDS011;58751;50.708;7.134;2022-08-19T11:32:13;11.03;;;10.20;;
71091;SDS011;58751;50.708;7.134;2022-08-19T11:34:38;10.90;;;10.00;;
71091;SDS011;58751;50.708;7.134;2022-08-19T11:37:05;11.07;;;10.17;;
71091;SDS011;58751;50.708;7.134;2022-08-19T11:39:31;11.60;;;10.80;;
71091;SDS011;58751;50.708;7.134;2022-08-19T11:41:57;11.03;;;10.23;;
71091;SDS011;58751;50.708;7.134;2022-08-19T11:44:22;11.13;;;9.30;;
71091;SDS011;58751;50.708;7.134;2022-08-19T11:46:48;12.00;;;10.90;;
71091;SDS011;58751;50.708;7.134;2022-08-19T11:49:13;9.87;;;8.87;;
71091;SDS011;58751;50.708;7.134;2022-08-19T11:51:38;12.93;;;9.30;;
71091;SDS011;58751;50.708;7.134;2022-08-19T11:54:05;10.43;;;9.63;;
71091;SDS011;58751;50.708;7.134;2022-08-19T11:56:30;18.20;;;10.10;;
71091;SDS011;58751;50.708;7.134;2022-08-19T11:58:56;9.20;;;8.50;;
71091;SDS011;58751;50.708;7.134;2022-08-19T12:01:22;9.40;;;8.50;;
71091;SDS011;58751;50.708;7.134;2022-08-19T12:03:48;11.00;;;10.10;;
71091;SDS011;58751;50.708;7.134;2022-08-19T12:06:15;12.87;;;11.70;;
71091;SDS011;58751;50.708;7.134;2022-08-19T12:08:41;11.67;;;10.50;;
71091;SDS011;58751;50.708;7.134;2022-08-19T12:11:07;11.40;;;10.27;;
71091;SDS011;58751;50.708;7.134;2022-08-19T12:13:33;11.30;;;10.50;;
71091;SDS011;58751;50.708;7.134;2022-08-19T12:15:58;12.07;;;10.50;;
71091;SDS011;58751;50.708;7.134;2022-08-19T12:18:24;11.33;;;10.47;;
71091;SDS011;58751;50.708;7.134;2022-08-19T12:20:50;12.73;;;11.83;;
71091;SDS011;58751;50.708;7.134;2022-08-19T12:23:15;12.70;;;11.50;;
71091;SDS011;58751;50.708;7.134;2022-08-19T12:25:44;12.33;;;10.00;;
71091;SDS011;58751;50.708;7.134;2022-08-19T12:28:10;12.30;;;11.50;;
71091;SDS011;58751;50.708;7.134;2022-08-19T12:30:37;13.23;;;12.07;;
71091;SDS011;58751;50.708;7.134;2022-08-19T12:33:02;12.30;;;11.50;;
71091;SDS011;58751;50.708;7.134;2022-08-19T12:35:28;14.40;;;13.17;;
71091;SDS011;58751;50.708;7.134;2022-08-19T12:37:53;12.67;;;11.80;;
71091;SDS011;58751;50.708;7.134;2022-08-19T12:40:18;14.27;;;13.27;;
71091;SDS011;58751;50.708;7.134;2022-08-19T12:42:43;13.43;;;12.53;;
71091;SDS011;58751;50.708;7.134;2022-08-19T12:45:11;14.80;;;13.80;;
71091;SDS011;58751;50.708;7.134;2022-08-19T12:47:36;13.97;;;12.77;;
71091;SDS011;58751;50.708;7.134;2022-08-19T12:50:02;13.30;;;12.30;;
71091;SDS011;58751;50.708;7.134;2022-08-19T12:52:27;13.67;;;12.67;;
71091;SDS011;58751;50.708;7.134;2022-08-19T12:54:53;13.80;;;12.80;;
71091;SDS011;58751;50.708;7.134;2022-08-19T12:57:19;16.23;;;14.73;;
71091;SDS011;58751;50.708;7.134;2022-08-19T12:59:44;15.37;;;14.27;;
71091;SDS011;58751;50.708;7.134;2022-08-19T13:02:10;14.63;;;13.43;;
71091;SDS011;58751;50.708;7.134;2022-08-19T13:04:36;15.47;;;14.17;;
71091;SDS011;58751;50.708;7.134;2022-08-19T13:07:01;17.17;;;15.93;;
71091;SDS011;58751;50.708;7.134;2022-08-19T13:09:27;16.63;;;15.23;;
71091;SDS011;58751;50.708;7.134;2022-08-19T13:11:52;18.23;;;16.63;;
71091;SDS011;58751;50.708;7.134;2022-08-19T13:14:17;17.20;;;15.83;;
71091;SDS011;58751;50.708;7.134;2022-08-19T13:16:42;17.23;;;15.87;;
71091;SDS011;58751;50.708;7.134;2022-08-19T13:19:09;14.60;;;13.60;;
71091;SDS011;58751;50.708;7.134;2022-08-19T13:21:34;16.10;;;14.67;;
71091;SDS011;58751;50.708;7.134;2022-08-19T13:24:00;14.37;;;12.97;;
71091;SDS011;58751;50.708;7.134;2022-08-19T13:26:25;14.80;;;13.50;;
71091;SDS011;58751;50.708;7.134;2022-08-19T13:28:50;13.60;;;12.47;;
71091;SDS011;58751;50.708;7.134;2022-08-19T13:31:16;11.73;;;10.83;;
71091;SDS011;58751;50.708;7.134;2022-08-19T13:33:41;11.37;;;10.57;;
71091;SDS011;58751;50.708;7.134;2022-08-19T13:36:08;10.60;;;9.90;;
71091;SDS011;58751;50.708;7.134;2022-08-19T13:38:33;12.60;;;11.70;;
71091;SDS011;58751;50.708;7.134;2022-08-19T13:41:03;11.43;;;10.63;;
71091;SDS011;58751;50.708;7.134;2022-08-19T13:43:28;11.93;;;11.03;;
71091;SDS011;58751;50.708;7.134;2022-08-19T13:45:54;13.07;;;11.90;;
71091;SDS011;58751;50.708;7.134;2022-08-19T13:48:19;11.50;;;10.70;;
71091;SDS011;58751;50.708;7.134;2022-08-19T13:50:45;13.07;;;10.73;;
71091;SDS011;58751;50.708;7.134;2022-08-19T13:53:12;11.73;;;10.93;;
71091;SDS011;58751;50.708;7.134;2022-08-19T13:55:37;12.37;;;11.50;;
71091;SDS011;58751;50.708;7.134;2022-08-19T13:58:03;13.00;;;12.00;;
71091;SDS011;58751;50.708;7.134;2022-08-19T14:00:29;12.97;;;12.07;;
71091;SDS011;58751;50.708;7.134;2022-08-19T14:02:55;11.40;;;10.40;;
71091;SDS011;58751;50.708;7.134;2022-08-19T14:05:21;13.07;;;11.73;;
71091;SDS011;58751;50.708;7.134;2022-08-19T14:07:46;11.13;;;10.07;;
71091;SDS011;58751;50.708;7.134;2022-08-19T14:10:13;12.10;;;11.20;;
71091;SDS011;58751;50.708;7.134;2022-08-19T14:12:39;10.80;;;9.90;;